Latest Weather Observations for Kurnell

IDN60801

Issued at 3:03 am EDT Thursday 23 November 2017 (issued every 30 minutes, with the page automatically refreshed every 10 minutes)

About weather observations | Map of weather stations | Latest weather observations for NSW | Other Formats
Station Details ID: 066043 Name: KURNELL AWS Lat: -34.00 Lon: 151.21 Height: 4.0 m
Data from the previous 72 hours. | See also: Recent months for locations in New South Wales
Date/Time
EDT
Temp
°C
App
Temp
°C
Dew
Point
°C
Rel
Hum
%
Delta-T
°C
Wind Press
QNH
hPa
Press
MSL
hPa
Rain since
9am
mm
Dir  Spd
km/h
Gust
km/h
Spd
kts
Gust
kts
23/03:00am - - - - - WNW 11 13 6 7 - - -
23/02:30am - - - - - NW 11 15 6 8 - - -
23/02:00am - - - - - ESE 2 7 1 4 - - -
23/01:30am - - - - - CALM 0 0 0 0 - - -
23/01:00am - - - - - CALM 0 0 0 0 - - -
23/12:30am - - - - - CALM 0 0 0 0 - - -
23/12:00am - - - - - NNE 7 11 4 6 - - -
 
Date/Time
EDT
Temp
°C
App
Temp
°C
Dew
Point
°C
Rel
Hum
%
Delta-T
°C
Wind Press
QNH
hPa
Press
MSL
hPa
Rain since
9am
mm
Dir  Spd
km/h
Gust
km/h
Spd
kts
Gust
kts
22/11:30pm - - - - - NNE 9 9 5 5 - - -
22/11:00pm - - - - - NE 11 13 6 7 - - -
22/10:30pm - - - - - NE 13 15 7 8 - - -
22/10:00pm - - - - - NE 13 15 7 8 - - -
22/09:30pm - - - - - ENE 13 17 7 9 - - -
22/09:00pm - - - - - ENE 15 17 8 9 - - -
22/08:30pm - - - - - ENE 13 19 7 10 - - -
22/08:00pm - - - - - ENE 17 20 9 11 - - -
22/07:30pm - - - - - ENE 20 26 11 14 - - -
22/07:00pm - - - - - ENE 24 28 13 15 - - -
22/06:30pm - - - - - ENE 26 32 14 17 - - -
22/06:00pm - - - - - E 26 30 14 16 - - -
22/05:30pm - - - - - E 24 30 13 16 - - -
22/05:00pm - - - - - E 22 26 12 14 - - -
22/04:30pm - - - - - E 22 26 12 14 - - -
22/04:00pm - - - - - E 20 24 11 13 - - -
22/03:30pm - - - - - E 22 28 12 15 - - -
22/03:00pm - - - - - E 19 28 10 15 - - -
22/02:30pm - - - - - ESE 19 28 10 15 - - -
22/02:00pm - - - - - SE 19 28 10 15 - - -
22/01:30pm - - - - - ESE 13 20 7 11 - - -
22/01:00pm - - - - - E 13 20 7 11 - - -
22/12:30pm - - - - - ESE 17 20 9 11 - - -
22/12:00pm - - - - - NNE 4 13 2 7 - - -
22/11:30am - - - - - WNW 7 9 4 5 - - -
22/11:00am - - - - - NW 13 15 7 8 - - -
22/10:30am - - - - - W 9 11 5 6 - - -
22/10:00am - - - - - WNW 9 9 5 5 - - -
22/09:30am - - - - - NW 9 9 5 5 - - -
22/09:00am - - - - - WNW 9 9 5 5 - - -
22/08:30am - - - - - WNW 7 9 4 5 - - -
22/08:00am - - - - - NNE 11 13 6 7 - - -
22/07:30am - - - - - NW 9 13 5 7 - - -
22/07:00am - - - - - NW 13 15 7 8 - - -
22/06:30am - - - - - SE 9 11 5 6 - - -
22/06:00am - - - - - ESE 11 13 6 7 - - -
22/05:30am - - - - - ESE 9 11 5 6 - - -
22/05:00am - - - - - SE 9 11 5 6 - - -
22/04:30am - - - - - SE 13 17 7 9 - - -
22/04:00am - - - - - ESE 11 15 6 8 - - -
22/03:30am - - - - - ESE 11 15 6 8 - - -
22/03:00am - - - - - ESE 11 13 6 7 - - -
22/02:30am - - - - - SE 9 9 5 5 - - -
22/02:00am - - - - - SE 9 11 5 6 - - -
22/01:30am - - - - - E 7 9 4 5 - - -
22/01:00am - - - - - ESE 7 11 4 6 - - -
22/12:30am - - - - - ESE 9 13 5 7 - - -
22/12:00am - - - - - ESE 7 11 4 6 - - -
 
Date/Time
EDT
Temp
°C
App
Temp
°C
Dew
Point
°C
Rel
Hum
%
Delta-T
°C
Wind Press
QNH
hPa
Press
MSL
hPa
Rain since
9am
mm
Dir  Spd
km/h
Gust
km/h
Spd
kts
Gust
kts
21/11:30pm - - - - - E 11 13 6 7 - - -
21/11:00pm - - - - - E 11 15 6 8 - - -
21/10:30pm - - - - - E 9 13 5 7 - - -
21/10:00pm - - - - - E 13 17 7 9 - - -
21/09:30pm - - - - - E 11 15 6 8 - - -
21/09:00pm - - - - - E 13 15 7 8 - - -
21/08:30pm - - - - - E 13 15 7 8 - - -
21/08:00pm - - - - - E 13 17 7 9 - - -
21/07:30pm - - - - - E 19 24 10 13 - - -
21/07:00pm - - - - - E 19 26 10 14 - - -
21/06:30pm - - - - - E 19 28 10 15 - - -
21/06:00pm - - - - - E 20 30 11 16 - - -
21/05:30pm - - - - - E 20 28 11 15 - - -
21/05:00pm - - - - - E 20 26 11 14 - - -
21/04:30pm - - - - - E 20 30 11 16 - - -
21/04:00pm - - - - - E 20 30 11 16 - - -
21/03:30pm - - - - - E 19 26 10 14 - - -
21/03:00pm - - - - - E 19 28 10 15 - - -
21/02:30pm - - - - - E 17 24 9 13 - - -
21/02:00pm - - - - - E 19 28 10 15 - - -
21/01:30pm - - - - - E 19 26 10 14 - - -
21/01:00pm - - - - - E 13 20 7 11 - - -
21/12:30pm - - - - - SE 15 20 8 11 - - -
21/12:00pm - - - - - SE 17 24 9 13 - - -
21/11:30am - - - - - SE 17 20 9 11 - - -
21/11:00am - - - - - SE 17 24 9 13 - - -
21/10:30am - - - - - SE 13 20 7 11 - - -
21/10:00am - - - - - SE 13 17 7 9 - - -
21/09:30am - - - - - SE 13 17 7 9 - - -
21/09:00am - - - - - SE 11 15 6 8 - - -
21/08:30am - - - - - ESE 9 13 5 7 - - -
21/08:00am - - - - - SE 11 15 6 8 - - -
21/07:30am - - - - - SE 11 15 6 8 - - -
21/07:00am - - - - - SE 9 11 5 6 - - -
21/06:30am - - - - - SSE 7 9 4 5 - - -
21/06:00am - - - - - SE 9 9 5 5 - - -
21/05:30am - - - - - SE 11 13 6 7 - - -
21/05:00am - - - - - ESE 15 20 8 11 - - -
21/04:30am - - - - - ESE 13 19 7 10 - - -
21/04:00am - - - - - ESE 13 17 7 9 - - -
21/03:30am - - - - - ESE 13 17 7 9 - - -
21/03:00am - - - - - ESE 15 19 8 10 - - -
21/02:30am - - - - - ESE 15 19 8 10 - - -
21/02:00am - - - - - ESE 13 17 7 9 - - -
21/01:30am - - - - - ESE 15 19 8 10 - - -
21/01:00am - - - - - ESE 13 17 7 9 - - -
21/12:30am - - - - - ESE 11 15 6 8 - - -
21/12:00am - - - - - SSE 4 9 2 5 - - -
 
Date/Time
EDT
Temp
°C
App
Temp
°C
Dew
Point
°C
Rel
Hum
%
Delta-T
°C
Wind Press
QNH
hPa
Press
MSL
hPa
Rain since
9am
mm
Dir  Spd
km/h
Gust
km/h
Spd
kts
Gust
kts
20/11:30pm - - - - - SSW 7 9 4 5 - - -
20/11:00pm - - - - - SSE 2 7 1 4 - - -
20/10:30pm - - - - - SSE 7 9 4 5 - - -
20/10:00pm - - - - - SE 11 13 6 7 - - -
20/09:30pm - - - - - SE 11 13 6 7 - - -
20/09:00pm - - - - - SE 11 15 6 8 - - -
20/08:30pm - - - - - SE 13 17 7 9 - - -
20/08:00pm - - - - - ESE 13 17 7 9 - - -
20/07:30pm - - - - - ESE 13 19 7 10 - - -
20/07:00pm - - - - - ESE 13 17 7 9 - - -
20/06:30pm - - - - - ESE 15 20 8 11 - - -
20/06:00pm - - - - - ESE 17 22 9 12 - - -
20/05:30pm - - - - - ESE 20 26 11 14 - - -
20/05:00pm - - - - - ESE 20 30 11 16 - - -
20/04:30pm - - - - - ESE 22 26 12 14 - - -
20/04:00pm - - - - - E 19 26 10 14 - - -
20/03:30pm - - - - - E 20 28 11 15 - - -
20/03:00pm - - - - - ESE 17 26 9 14 - - -
20/02:30pm - - - - - ESE 19 28 10 15 - - -
20/02:00pm - - - - - SSE 19 26 10 14 - - -
20/01:30pm - - - - - SE 15 19 8 10 - - -
20/01:00pm - - - - - SE 15 20 8 11 - - -
20/12:30pm - - - - - SE 19 26 10 14 - - -
20/12:00pm - - - - - E 17 19 9 10 - - -
20/11:30am - - - - - E 22 30 12 16 - - -
20/11:00am - - - - - ENE 19 28 10 15 - - -
20/10:30am - - - - - ESE 20 32 11 17 - - -
20/10:00am - - - - - ESE 13 17 7 9 - - -
20/09:30am - - - - - E 9 13 5 7 - - -
20/09:00am - - - - - ESE 13 19 7 10 - - -
20/08:30am - - - - - SE 17 24 9 13 - - -
20/08:00am - - - - - ESE 22 30 12 16 - - -
20/07:30am - - - - - SE 17 28 9 15 - - -
20/07:00am - - - - - SSW 11 13 6 7 - - -
20/06:30am - - - - - SSW 11 15 6 8 - - -
20/06:00am - - - - - SSW 9 11 5 6 - - -
20/05:30am - - - - - S 9 15 5 8 - - -
20/05:00am - - - - - SSW 11 13 6 7 - - -
20/04:30am - - - - - SE 13 17 7 9 - - -
20/04:00am - - - - - SE 13 19 7 10 - - -
20/03:30am - - - - - SSE 9 9 5 5 - - -

Other Formats:

Comma delimited format used in spreadsheet applications
http://www.bom.gov.au/fwo/IDN60801/IDN60801.95756.axf

JavaScript Object Notation format (JSON) in row-major order
http://www.bom.gov.au/fwo/IDN60801/IDN60801.95756.json